Serenada — 9HA3341 — position and weather

sailwx.info

Track history (hours):
 
Tides and Currents Weather Stations Pressure Air Temp Water Temp Dewpoint Dewpoint Depression Visibility Wind Speed Wind Dir Waves Ship Positions

Serenada

Last reported at 2018-Apr-21 17:20 UTC. Time now 2018-Apr-21 19:24 UTC.
Position N 43°39' W 004°26'.

Length 99 m; draft 3.8 m.

Type: Ship. MMSI: 229453000.

Date/timePositionNaut miles runAvg speedWind from/ knotsBaromVisibWave heightAir tempDewpointWater temp
2018-Apr-21 17:20N 43°39' W 004°26'410.7
2018-Apr-21 16:59N 43°39' W 004°21'510.8
2018-Apr-21 16:30N 43°38' W 004°14'510.8
2018-Apr-21 16:00N 43°38' W 004°07'710.9
2018-Apr-21 15:21N 43°37' W 003°57'411.0
2018-Apr-21 15:00N 43°37' W 003°52'911.3
2018-Apr-21 14:14N 43°36' W 003°40'311.6
2018-Apr-21 13:58N 43°35' W 003°35'611.3
2018-Apr-21 13:26N 43°34' W 003°27'511.1
2018-Apr-21 13:00N 43°32' W 003°22'611.1
2018-Apr-21 12:29N 43°29' W 003°15'511.1
2018-Apr-21 12:00N 43°26' W 003°09'510.7
2018-Apr-21 11:30N 43°22' W 003°04'1 1.3
2018-Apr-21 11:00N 43°22' W 003°04'0 0.0
2018-Apr-21 10:28N 43°22' W 003°04'0 0.0
2018-Apr-21 09:58N 43°22' W 003°04'0 0.0
2018-Apr-21 09:28N 43°22' W 003°04'  
Track history (hours):
 
Tides and Currents Weather Stations Pressure Air Temp Water Temp Dewpoint Dewpoint Depression Visibility Wind Speed Wind Dir Waves Ship Positions

Serenada

Last reported at 2018-Apr-21 17:20 UTC. Time now 2018-Apr-21 19:24 UTC.
Position N 43°39' W 004°26'.

Length 99 m; draft 3.8 m.

Type: Ship. MMSI: 229453000.

Date/timePositionNaut miles runAvg speedWind from/ knotsBaromVisibWave heightAir tempDewpointWater temp
2018-Apr-21 17:20N 43°39' W 004°26'410.7
2018-Apr-21 16:59N 43°39' W 004°21'510.8
2018-Apr-21 16:30N 43°38' W 004°14'510.8
2018-Apr-21 16:00N 43°38' W 004°07'710.9
2018-Apr-21 15:21N 43°37' W 003°57'411.0
2018-Apr-21 15:00N 43°37' W 003°52'911.3
2018-Apr-21 14:14N 43°36' W 003°40'311.6
2018-Apr-21 13:58N 43°35' W 003°35'611.3
2018-Apr-21 13:26N 43°34' W 003°27'511.1
2018-Apr-21 13:00N 43°32' W 003°22'611.1
2018-Apr-21 12:29N 43°29' W 003°15'511.1
2018-Apr-21 12:00N 43°26' W 003°09'510.7
2018-Apr-21 11:30N 43°22' W 003°04'1 1.3
2018-Apr-21 11:00N 43°22' W 003°04'0 0.0
2018-Apr-21 10:28N 43°22' W 003°04'0 0.0
2018-Apr-21 09:58N 43°22' W 003°04'0 0.0
2018-Apr-21 09:28N 43°22' W 003°04'  

Dump ship's entire track history